Time;durP1;ratioP1;P1;durP2;ratioP2;P2;SDS_P1;SDS_P2;PMS_P1;PMS_P2;Temp;Humidity;BMP_temperature;BMP_pressure;BME280_temperature;BME280_humidity;BME280_pressure;Samples;Min_cycle;Max_cycle;Signal;HPM_P1;HPM_P2
2024/02/29 00:00:43;;;;;;;21.58;8.90;;;;;;;;;;5091700;28;20408;-88
2024/02/29 00:03:09;;;;;;;15.43;7.57;;;;;;;;;;5079990;28;20024;-88
2024/02/29 00:05:38;;;;;;;16.17;6.53;;;3.30;99.90;;;;;;5070957;28;20021;-87
2024/02/29 00:08:04;;;;;;;12.77;6.38;;;;;;;;;;5073773;28;20129;-87
2024/02/29 00:10:30;;;;;;;16.45;7.22;;;;;;;;;;5085038;28;20186;-88
2024/02/29 00:12:57;;;;;;;25.35;7.45;;;;;;;;;;5080436;28;20131;-87
2024/02/29 00:15:23;;;;;;;10.10;5.95;;;;;;;;;;5072226;28;20049;-88
2024/02/29 00:17:49;;;;;;;17.88;7.13;;;;;;;;;;5080209;28;20139;-87
2024/02/29 00:20:15;;;;;;;16.98;8.10;;;;;;;;;;5069977;28;20497;-88
2024/02/29 00:22:41;;;;;;;19.58;7.50;;;;;;;;;;5083167;28;20121;-87
2024/02/29 00:25:08;;;;;;;11.40;6.80;;;;;;;;;;5076330;28;20557;-88
2024/02/29 00:27:34;;;;;;;17.67;7.35;;;;;;;;;;5083908;28;20262;-87
2024/02/29 00:30:00;;;;;;;14.02;5.80;;;;;;;;;;5078957;28;20083;-87
2024/02/29 00:32:26;;;;;;;23.05;7.82;;;;;;;;;;5088998;28;20381;-87
2024/02/29 00:34:52;;;;;;;20.20;8.05;;;;;;;;;;5080045;28;20032;-88
2024/02/29 00:37:18;;;;;;;19.15;7.63;;;;;;;;;;5091166;28;20479;-87
2024/02/29 00:39:44;;;;;;;19.23;7.93;;;;;;;;;;5070867;28;20025;-88
2024/02/29 00:42:10;;;;;;;16.65;6.63;;;;;;;;;;5070791;28;20056;-87
2024/02/29 00:44:35;;;;;;;18.20;6.55;;;;;;;;;;5071048;28;20037;-87
2024/02/29 00:47:01;;;;;;;15.05;7.15;;;;;;;;;;5070475;28;20017;-88
2024/02/29 00:49:28;;;;;;;12.55;6.78;;;;;;;;;;5071312;28;20501;-86
2024/02/29 00:51:54;;;;;;;21.23;10.25;;;;;;;;;;5081105;28;20031;-87
2024/02/29 00:54:24;;;;;;;17.42;6.53;;;;;;;;;;5076410;28;20040;-88
2024/02/29 00:56:50;;;;;;;11.00;6.03;;;;;;;;;;5071008;28;20028;-87
2024/02/29 00:59:16;;;;;;;17.60;7.40;;;;;;;;;;5070346;28;20040;-87
2024/02/29 01:01:42;;;;;;;19.58;8.02;;;;;;;;;;5071176;28;20028;-87
2024/02/29 01:04:08;;;;;;;17.42;6.60;;;;;;;;;;5070551;28;20541;-88
2024/02/29 01:06:34;;;;;;;15.15;6.95;;;;;;;;;;5079287;28;20059;-88
2024/02/29 01:09:00;;;;;;;13.73;6.63;;;;;;;;;;5082452;28;20405;-87
2024/02/29 01:11:26;;;;;;;17.42;6.45;;;;;;;;;;5068704;28;20371;-87
2024/02/29 01:13:52;;;;;;;17.40;8.15;;;;;;;;;;5082899;28;20443;-87
2024/02/29 01:16:18;;;;;;;13.70;8.05;;;;;;;;;;5070711;28;20086;-88
2024/02/29 01:18:44;;;;;;;19.17;7.93;;;;;;;;;;5085666;28;20103;-88
2024/02/29 01:21:10;;;;;;;14.35;7.30;;;;;;;;;;5070292;28;20028;-87
2024/02/29 01:23:36;;;;;;;13.38;6.82;;;;;;;;;;5070873;28;20013;-87
2024/02/29 01:26:04;;;;;;;16.33;6.30;;;;;;;;;;5070373;28;20043;-87
2024/02/29 01:28:29;;;;;;;;;;;2.80;99.90;;;;;;5070982;28;20017;-87
2024/02/29 01:30:55;;;;;;;27.60;8.07;;;2.30;99.90;;;;;;5071838;28;20344;-87
2024/02/29 01:33:21;;;;;;;16.65;7.60;;;;;;;;;;5081834;28;20027;-87
2024/02/29 01:35:47;;;;;;;15.00;6.28;;;;;;;;;;5071871;28;20064;-87
2024/02/29 01:38:13;;;;;;;16.65;6.75;;;;;;;;;;5083587;28;20028;-87
2024/02/29 01:40:39;;;;;;;19.38;8.02;;;;;;;;;;5069387;28;20104;-88
2024/02/29 01:43:05;;;;;;;18.17;5.78;;;;;;;;;;5068471;28;20379;-88
2024/02/29 01:45:31;;;;;;;16.00;7.85;;;;;;;;;;5071239;28;20013;-87
2024/02/29 01:47:57;;;;;;;12.13;6.93;;;;;;;;;;5074246;28;20039;-86
2024/02/29 01:50:24;;;;;;;16.35;7.70;;;2.60;99.90;;;;;;5083683;28;20069;-87
2024/02/29 01:52:51;;;;;;;17.45;8.60;;;;;;;;;;5077380;28;20531;-87
2024/02/29 01:55:17;;;;;;;12.57;7.40;;;;;;;;;;5079782;28;20098;-87
2024/02/29 01:57:43;;;;;;;20.73;6.72;;;;;;;;;;5079317;28;20613;-88
2024/02/29 02:00:10;;;;;;;15.88;6.43;;;;;;;;;;5079355;28;20637;-88
2024/02/29 02:02:37;;;;;;;13.45;5.75;;;;;;;;;;5072043;28;20150;-87
2024/02/29 02:05:07;;;;;;;11.45;6.15;;;2.50;99.90;;;;;;5089437;28;20173;-87
2024/02/29 02:07:36;;;;;;;13.32;6.95;;;2.40;99.90;;;;;;5075577;28;20047;-88
2024/02/29 02:10:03;;;;;;;13.32;8.15;;;2.40;99.90;;;;;;5070823;28;20037;-87
2024/02/29 02:12:29;;;;;;;17.90;8.65;;;;;;;;;;5069681;28;20031;-87
2024/02/29 02:14:55;;;;;;;13.07;7.50;;;;;;;;;;5073292;28;20036;-88
2024/02/29 02:17:21;;;;;;;10.57;5.68;;;;;;;;;;5068657;28;20025;-87
2024/02/29 02:19:47;;;;;;;17.17;7.43;;;;;;;;;;5070403;28;20031;-87
2024/02/29 02:22:13;;;;;;;13.55;7.07;;;;;;;;;;5073587;28;20024;-87
2024/02/29 02:24:39;;;;;;;16.02;6.80;;;;;;;;;;5079229;28;20093;-87
2024/02/29 02:27:05;;;;;;;15.18;6.68;;;;;;;;;;5070942;28;20910;-87
2024/02/29 02:29:31;;;;;;;15.27;6.68;;;;;;;;;;5074838;28;20047;-87
2024/02/29 02:31:57;;;;;;;16.25;7.32;;;;;;;;;;5080789;28;20048;-87
2024/02/29 02:34:23;;;;;;;15.07;7.13;;;;;;;;;;5083360;28;20397;-87
2024/02/29 02:36:49;;;;;;;13.77;7.57;;;;;;;;;;5084890;28;20027;-87
2024/02/29 02:39:16;;;;;;;21.33;7.70;;;;;;;;;;5067944;28;20032;-87
2024/02/29 02:41:44;;;;;;;14.75;7.07;;;;;;;;;;5068790;28;20017;-87
2024/02/29 02:44:11;;;;;;;16.10;8.65;;;;;;;;;;5065035;28;20024;-87
2024/02/29 02:46:37;;;;;;;18.08;8.60;;;;;;;;;;5076317;28;20031;-87
2024/02/29 02:49:04;;;;;;;15.07;6.82;;;;;;;;;;5078795;28;20024;-88
2024/02/29 02:51:30;;;;;;;17.33;8.10;;;;;;;;;;5087628;28;20023;-88
2024/02/29 02:53:57;;;;;;;15.05;8.23;;;2.80;99.90;;;;;;5072489;28;20505;-87
2024/02/29 02:56:23;;;;;;;20.40;8.18;;;;;;;;;;5076025;28;20047;-87
2024/02/29 02:58:49;;;;;;;15.65;5.30;;;;;;;;;;5074598;28;20486;-88
2024/02/29 03:01:16;;;;;;;13.30;7.15;;;;;;;;;;5071333;28;20017;-87
2024/02/29 03:03:42;;;;;;;12.35;5.55;;;;;;;;;;5069338;28;20017;-87
2024/02/29 03:06:09;;;;;;;11.50;6.15;;;;;;;;;;5080033;28;20031;-86
2024/02/29 03:08:34;;;;;;;17.85;8.32;;;;;;;;;;5078504;28;20062;-87
2024/02/29 03:11:00;;;;;;;13.25;5.72;;;;;;;;;;5085744;28;20082;-87
2024/02/29 03:13:26;;;;;;;24.50;6.68;;;;;;;;;;5083683;28;20031;-89
2024/02/29 03:15:52;;;;;;;15.35;5.82;;;;;;;;;;5070054;28;20035;-87
2024/02/29 03:18:18;;;;;;;13.48;6.90;;;;;;;;;;5087117;28;20020;-87
2024/02/29 03:20:44;;;;;;;16.95;7.18;;;;;;;;;;5072718;28;20062;-87
2024/02/29 03:23:10;;;;;;;25.75;8.18;;;;;;;;;;5081425;28;20025;-87
2024/02/29 03:25:36;;;;;;;15.70;6.20;;;;;;;;;;5074523;28;20052;-87
2024/02/29 03:28:02;;;;;;;18.42;7.38;;;;;;;;;;5085626;28;20370;-87
2024/02/29 03:30:28;;;;;;;18.25;8.02;;;;;;;;;;5074843;28;20054;-87
2024/02/29 03:32:54;;;;;;;19.70;9.52;;;3.00;99.90;;;;;;5085493;28;20031;-87
2024/02/29 03:35:20;;;;;;;20.30;6.65;;;;;;;;;;5071925;28;20398;-88
2024/02/29 03:37:46;;;;;;;17.27;6.97;;;;;;;;;;5070568;28;20028;-87
2024/02/29 03:40:12;;;;;;;17.40;6.63;;;;;;;;;;5069037;28;20035;-88
2024/02/29 03:42:38;;;;;;;14.30;5.95;;;3.10;99.90;;;;;;5072719;28;20028;-87
2024/02/29 03:45:05;;;;;;;24.27;8.15;;;3.20;99.90;;;;;;5070588;28;20404;-87
2024/02/29 03:47:31;;;;;;;17.48;7.53;;;;;;;;;;5070706;28;20020;-88
2024/02/29 03:49:57;;;;;;;21.92;6.13;;;;;;;;;;5072382;28;20032;-86
2024/02/29 03:52:23;;;;;;;17.08;6.65;;;;;;;;;;5072451;28;20077;-88
2024/02/29 03:54:49;;;;;;;19.75;6.55;;;;;;;;;;5071997;28;20060;-87
2024/02/29 03:57:15;;;;;;;27.08;7.25;;;;;;;;;;5072333;28;20096;-88
2024/02/29 03:59:46;;;;;;;17.85;8.98;;;;;;;;;;5071403;28;20021;-88
2024/02/29 04:02:12;;;;;;;13.95;7.22;;;3.20;99.90;;;;;;5077430;28;20061;-87
2024/02/29 04:04:39;;;;;;;19.92;8.15;;;;;;;;;;5085320;28;20029;-87
2024/02/29 04:07:05;;;;;;;15.10;6.82;;;;;;;;;;5078974;28;20268;-87
2024/02/29 04:09:31;;;;;;;18.88;7.32;;;;;;;;;;5089439;28;20035;-87
2024/02/29 04:11:57;;;;;;;15.95;5.43;;;;;;;;;;5080196;28;20024;-87
2024/02/29 04:14:23;;;;;;;16.88;8.20;;;;;;;;;;5090732;28;20429;-88
2024/02/29 04:16:49;;;;;;;22.15;7.85;;;;;;;;;;5073966;28;20378;-87
2024/02/29 04:19:16;;;;;;;17.48;8.40;;;;;;;;;;5084746;28;20017;-87
2024/02/29 04:21:46;;;;;;;18.27;6.47;;;2.80;99.90;;;;;;5074591;28;20065;-87
2024/02/29 04:24:12;;;;;;;16.48;8.40;;;;;;;;;;5077857;28;20363;-86
2024/02/29 04:26:38;;;;;;;11.00;5.95;;;;;;;;;;5078753;28;20028;-86
2024/02/29 04:29:04;;;;;;;16.15;7.38;;;;;;;;;;5081993;28;20028;-87
2024/02/29 04:31:30;;;;;;;16.60;6.90;;;;;;;;;;5080643;28;20304;-87
2024/02/29 04:33:56;;;;;;;14.70;6.63;;;;;;;;;;5082954;28;20044;-87
2024/02/29 04:36:22;;;;;;;11.15;5.57;;;;;;;;;;5082724;28;20031;-87
2024/02/29 04:38:49;;;;;;;18.48;7.53;;;;;;;;;;5085999;28;20390;-88
2024/02/29 04:41:16;;;;;;;18.85;8.70;;;;;;;;;;5079766;28;20028;-87
2024/02/29 04:43:42;;;;;;;15.23;8.57;;;;;;;;;;5079533;28;20446;-87
2024/02/29 04:46:08;;;;;;;14.50;6.97;;;;;;;;;;5077335;28;20012;-87
2024/02/29 04:48:34;;;;;;;16.05;6.65;;;;;;;;;;5071420;28;20479;-87
2024/02/29 04:51:00;;;;;;;12.30;6.82;;;;;;;;;;5081782;28;20034;-87
2024/02/29 04:53:26;;;;;;;17.05;6.32;;;;;;;;;;5072884;28;20017;-87
2024/02/29 04:55:52;;;;;;;9.60;5.43;;;;;;;;;;5070546;28;20410;-88
2024/02/29 04:58:18;;;;;;;14.20;6.60;;;;;;;;;;5070955;28;20020;-88
2024/02/29 05:00:44;;;;;;;15.40;7.40;;;;;;;;;;5069683;28;20401;-87
2024/02/29 05:03:10;;;;;;;13.82;6.95;;;;;;;;;;5070559;28;20058;-87
2024/02/29 05:05:36;;;;;;;18.33;8.15;;;;;;;;;;5085729;28;20108;-87
2024/02/29 05:08:02;;;;;;;15.57;5.07;;;;;;;;;;5083871;28;20052;-87
2024/02/29 05:10:28;;;;;;;14.30;7.70;;;;;;;;;;5086740;28;20026;-86
2024/02/29 05:12:54;;;;;;;9.98;5.60;;;;;;;;;;5081466;28;20020;-87
2024/02/29 05:15:23;;;;;;;21.15;9.43;;;;;;;;;;5071883;28;20389;-87
2024/02/29 05:17:49;;;;;;;12.30;6.55;;;1.90;99.90;;;;;;5080092;28;20437;-87
2024/02/29 05:20:15;;;;;;;12.13;7.10;;;;;;;;;;5070922;28;20032;-87
2024/02/29 05:22:41;;;;;;;14.57;5.75;;;1.70;99.90;;;;;;5071832;28;20024;-86
2024/02/29 05:25:10;;;;;;;15.07;6.77;;;;;;;;;;5076620;28;20043;-87
2024/02/29 05:27:37;;;;;;;15.27;6.07;;;1.60;99.90;;;;;;5084648;28;20040;-87
2024/02/29 05:30:03;;;;;;;12.40;6.25;;;1.60;99.90;;;;;;5083827;28;20051;-87
2024/02/29 05:32:30;;;;;;;12.57;6.93;;;;;;;;;;5087668;28;20401;-87
2024/02/29 05:34:56;;;;;;;11.90;4.30;;;;;;;;;;5082461;28;20075;-88
2024/02/29 05:37:22;;;;;;;14.23;9.00;;;;;;;;;;5089049;28;20024;-88
2024/02/29 05:39:48;;;;;;;10.60;5.25;;;;;;;;;;5068972;28;20408;-88
2024/02/29 05:42:14;;;;;;;8.27;5.00;;;;;;;;;;5080157;28;20054;-87
2024/02/29 05:44:40;;;;;;;10.60;5.50;;;;;;;;;;5073742;28;20031;-88
2024/02/29 05:47:07;;;;;;;10.77;5.70;;;;;;;;;;5079702;28;20024;-87
2024/02/29 05:49:34;;;;;;;;;;;1.40;99.90;;;;;;5077776;28;20020;-87
2024/02/29 05:52:00;;;;;;;11.10;6.23;;;;;;;;;;5071183;28;19916;-88
2024/02/29 05:54:26;;;;;;;13.05;5.45;;;;;;;;;;5076426;28;20400;-88
2024/02/29 05:56:52;;;;;;;10.52;4.93;;;;;;;;;;5083216;28;20264;-87
2024/02/29 05:59:18;;;;;;;9.15;5.35;;;;;;;;;;5080177;28;20020;-88
2024/02/29 06:01:44;;;;;;;5.75;4.05;;;;;;;;;;5075435;28;20035;-88
2024/02/29 06:04:10;;;;;;;7.70;5.88;;;;;;;;;;5078875;28;20389;-88
2024/02/29 06:06:36;;;;;;;15.07;4.72;;;;;;;;;;5076024;28;20044;-89
2024/02/29 06:09:03;;;;;;;9.38;6.07;;;;;;;;;;5084804;28;20085;-88
2024/02/29 06:11:29;;;;;;;14.30;4.95;;;;;;;;;;5070560;28;20032;-88
2024/02/29 06:13:56;;;;;;;19.35;3.72;;;;;;;;;;5083422;28;20487;-89
2024/02/29 06:16:22;;;;;;;15.27;6.07;;;;;;;;;;5073501;28;20086;-88
2024/02/29 06:18:48;;;;;;;9.95;4.45;;;;;;;;;;5070883;28;20469;-89
2024/02/29 06:21:14;;;;;;;8.73;5.53;;;;;;;;;;5075364;28;20025;-88
2024/02/29 06:23:40;;;;;;;12.75;5.53;;;;;;;;;;5085839;28;20062;-89
2024/02/29 06:26:06;;;;;;;16.58;6.90;;;;;;;;;;5078157;28;20052;-88
2024/02/29 06:28:32;;;;;;;18.92;6.40;;;;;;;;;;5083795;28;20040;-88
2024/02/29 06:30:58;;;;;;;12.35;5.25;;;;;;;;;;5072418;28;20048;-89
2024/02/29 06:33:25;;;;;;;10.13;5.57;;;;;;;;;;5084236;28;20103;-89
2024/02/29 06:35:51;;;;;;;16.35;7.47;;;;;;;;;;5068231;28;20498;-90
2024/02/29 06:38:17;;;;;;;13.85;8.02;;;;;;;;;;5076926;28;20035;-88
2024/02/29 06:40:43;;;;;;;16.33;7.38;;;;;;;;;;5071467;28;20029;-87
2024/02/29 06:43:09;;;;;;;14.68;7.60;;;;;;;;;;5080683;28;20028;-88
2024/02/29 06:45:35;;;;;;;13.68;6.75;;;;;;;;;;5074637;28;20051;-89
2024/02/29 06:48:01;;;;;;;20.50;7.97;;;;;;;;;;5083247;28;20024;-88
2024/02/29 06:50:27;;;;;;;9.68;5.72;;;;;;;;;;5087336;28;20052;-80
2024/02/29 06:52:53;;;;;;;11.77;5.38;;;;;;;;;;5084028;28;20051;-81
2024/02/29 06:55:19;;;;;;;9.90;6.28;;;;;;;;;;5086791;28;20054;-82
2024/02/29 06:57:47;;;;;;;14.43;8.02;;;;;;;;;;5075628;28;20074;-81
2024/02/29 07:00:13;;;;;;;18.92;7.18;;;3.20;99.90;;;;;;5088345;28;20035;-82
2024/02/29 07:02:39;;;;;;;12.57;7.43;;;;;;;;;;5074387;28;20547;-82
2024/02/29 07:05:05;;;;;;;10.25;6.93;;;3.50;99.90;;;;;;5083182;28;20040;-81
2024/02/29 07:07:31;;;;;;;18.48;8.82;;;;;;;;;;5073597;28;20552;-82
2024/02/29 07:09:57;;;;;;;19.40;6.85;;;;;;;;;;5082764;28;20035;-82
2024/02/29 07:12:23;;;;;;;25.00;8.30;;;;;;;;;;5078743;28;20012;-82
2024/02/29 07:14:50;;;;;;;16.70;7.93;;;;;;;;;;5082572;28;20135;-82
2024/02/29 07:17:16;;;;;;;19.08;7.40;;;;;;;;;;5081160;28;20028;-82
2024/02/29 07:19:42;;;;;;;19.50;7.30;;;;;;;;;;5075301;28;20044;-84
2024/02/29 07:22:08;;;;;;;18.70;9.40;;;;;;;;;;5076622;28;20017;-81
2024/02/29 07:24:34;;;;;;;21.88;7.45;;;;;;;;;;5077141;28;20379;-76
2024/02/29 07:27:01;;;;;;;20.25;8.52;;;;;;;;;;5077932;28;20064;-84
2024/02/29 07:29:27;;;;;;;9.20;5.55;;;;;;;;;;5077729;28;20485;-87
2024/02/29 07:31:53;;;;;;;11.25;5.65;;;;;;;;;;5066608;28;20079;-84
2024/02/29 07:34:19;;;;;;;21.13;7.05;;;6.20;99.90;;;;;;5061276;28;20045;-80
2024/02/29 07:36:45;;;;;;;15.38;7.63;;;;;;;;;;5069439;28;20056;-79
2024/02/29 07:39:12;;;;;;;18.98;7.60;;;;;;;;;;5074247;28;20032;-81
2024/02/29 07:41:38;;;;;;;28.37;5.47;;;;;;;;;;5077567;28;20096;-83
2024/02/29 07:44:04;;;;;;;19.25;5.93;;;;;;;;;;5076560;28;20477;-82
2024/02/29 07:46:31;;;;;;;12.73;6.07;;;;;;;;;;5084165;28;20020;-77
2024/02/29 07:48:57;;;;;;;16.35;7.30;;;;;;;;;;5080262;28;20119;-80
2024/02/29 07:51:22;;;;;;;11.43;5.93;;;7.30;99.90;;;;;;5075600;28;20054;-79
2024/02/29 07:53:48;;;;;;;13.85;5.80;;;6.90;99.90;;;;;;5070352;28;20103;-82
2024/02/29 07:56:14;;;;;;;12.95;6.75;;;;;;;;;;5070867;28;20032;-79
2024/02/29 07:58:40;;;;;;;8.88;5.57;;;;;;;;;;5073128;28;20024;-81
2024/02/29 08:01:06;;;;;;;13.77;6.18;;;;;;;;;;5071550;28;20487;-80
2024/02/29 08:03:32;;;;;;;16.20;6.47;;;;;;;;;;5069536;28;20078;-79
2024/02/29 08:05:58;;;;;;;15.13;6.00;;;;;;;;;;5077097;28;20635;-80
2024/02/29 08:08:24;;;;;;;14.23;6.93;;;;;;;;;;5078823;28;20048;-81
2024/02/29 08:10:50;;;;;;;14.57;5.75;;;;;;;;;;5080338;28;20408;-80
2024/02/29 08:13:16;;;;;;;13.52;6.43;;;;;;;;;;5081947;28;20024;-82
2024/02/29 08:15:43;;;;;;;15.85;6.85;;;;;;;;;;5082712;28;20040;-80
2024/02/29 08:18:09;;;;;;;14.10;6.45;;;;;;;;;;5076145;28;20027;-81
2024/02/29 08:20:35;;;;;;;17.73;6.80;;;;;;;;;;5075271;28;20032;-81
2024/02/29 08:23:00;;;;;;;15.35;7.03;;;18.60;84.60;;;;;;5081726;28;20103;-80
2024/02/29 08:25:26;;;;;;;13.63;7.10;;;;;;;;;;5071208;28;20036;-81
2024/02/29 08:27:53;;;;;;;11.70;6.28;;;26.60;45.70;;;;;;5074017;28;20020;-80
2024/02/29 08:30:19;;;;;;;12.70;7.28;;;;;;;;;;5072236;28;20388;-81
2024/02/29 08:32:45;;;;;;;11.73;6.05;;;;;;;;;;5066425;28;20112;-81
2024/02/29 08:35:11;;;;;;;14.77;7.43;;;33.20;50.50;;;;;;5071786;28;20063;-80
2024/02/29 08:37:37;;;;;;;10.52;5.68;;;34.10;49.60;;;;;;5076228;28;20477;-82
2024/02/29 08:40:04;;;;;;;7.05;4.70;;;;;;;;;;5077226;28;20485;-82
2024/02/29 08:42:30;;;;;;;14.30;6.72;;;;;;;;;;5075844;28;20095;-79
2024/02/29 08:44:56;;;;;;;10.33;4.80;;;36.60;41.70;;;;;;5068952;28;20396;-79
2024/02/29 08:47:22;;;;;;;8.38;5.18;;;;;;;;;;5068203;28;20527;-83
2024/02/29 08:49:48;;;;;;;13.70;5.93;;;;;;;;;;5074775;28;20052;-83
2024/02/29 08:52:14;;;;;;;11.27;5.13;;;;;;;;;;5076233;28;20032;-84
2024/02/29 08:54:40;;;;;;;10.83;6.23;;;;;;;;;;5075681;28;20094;-81
2024/02/29 08:57:07;;;;;;;13.00;6.63;;;39.50;43.20;;;;;;5071187;28;20387;-80
2024/02/29 08:59:32;;;;;;;12.45;5.65;;;39.80;40.60;;;;;;5070076;28;20021;-81
2024/02/29 09:02:00;;;;;;;8.47;5.37;;;;;;;;;;5070210;28;20399;-81
2024/02/29 09:04:26;;;;;;;11.02;5.93;;;;;;;;;;5071665;28;20074;-81
2024/02/29 09:06:53;;;;;;;12.75;6.05;;;;;;;;;;5069397;28;20052;-81
2024/02/29 09:09:19;;;;;;;9.73;5.93;;;;;;;;;;5070683;28;20112;-81
2024/02/29 09:11:46;;;;;;;9.18;5.53;;;;;;;;;;5069807;28;20044;-80
2024/02/29 09:14:12;;;;;;;12.98;6.05;;;;;;;;;;5076906;28;20115;-81
2024/02/29 09:16:38;;;;;;;9.60;6.30;;;;;;;;;;5071561;28;20115;-81
2024/02/29 09:19:04;;;;;;;11.65;6.15;;;;;;;;;;5081729;28;20025;-81
2024/02/29 09:21:30;;;;;;;10.30;5.47;;;;;;;;;;5071826;28;20084;-81
2024/02/29 09:23:56;;;;;;;8.95;5.70;;;;;;;;;;5075707;28;20077;-80
2024/02/29 09:26:23;;;;;;;13.82;6.43;;;41.20;27.00;;;;;;5068790;28;20549;-81
2024/02/29 09:28:48;;;;;;;8.27;4.90;;;;;;;;;;5063402;28;20032;-83
2024/02/29 09:31:14;;;;;;;10.32;5.55;;;;;;;;;;5064632;28;20393;-81
2024/02/29 09:33:41;;;;;;;9.25;5.10;;;;;;;;;;5068377;28;20052;-81
2024/02/29 09:36:15;;;;;;;7.10;4.88;;;40.10;26.30;;;;;;5068632;28;20057;-81
2024/02/29 09:38:41;;;;;;;11.57;6.10;;;;;;;;;;5072092;28;20111;-81
2024/02/29 09:41:12;;;;;;;7.65;5.05;;;40.90;35.30;;;;;;5072337;28;20028;-81
2024/02/29 09:43:40;;;;;;;7.25;4.53;;;40.50;24.90;;;;;;5069405;28;20497;-81
2024/02/29 09:46:06;;;;;;;11.23;5.60;;;;;;;;;;5066666;28;20027;-81
2024/02/29 09:48:32;;;;;;;6.55;4.65;;;;;;;;;;5066691;28;20025;-81
2024/02/29 09:51:02;;;;;;;10.02;5.03;;;40.70;28.70;;;;;;5069793;28;20044;-81
2024/02/29 09:53:28;;;;;;;8.70;4.47;;;;;;;;;;5065448;28;20016;-81
2024/02/29 09:55:57;;;;;;;13.95;5.63;;;40.90;24.60;;;;;;5076670;28;20119;-80
2024/02/29 09:58:25;;;;;;;8.45;4.55;;;41.20;24.30;;;;;;5067597;28;20043;-80
2024/02/29 10:00:50;;;;;;;7.80;4.03;;;41.20;34.30;;;;;;5076688;28;20118;-80
2024/02/29 10:03:18;;;;;;;7.63;4.63;;;42.00;28.40;;;;;;5076180;28;20230;-80
2024/02/29 10:05:48;;;;;;;6.15;4.55;;;42.30;29.60;;;;;;5077674;28;20102;-80
2024/02/29 10:08:14;;;;;;;7.03;4.70;;;;;;;;;;5081612;28;20048;-80
2024/02/29 10:10:40;;;;;;;6.95;3.95;;;42.00;24.90;;;;;;5080468;28;20031;-81
2024/02/29 10:13:06;;;;;;;9.02;4.88;;;;;;;;;;5075557;28;20459;-82
2024/02/29 10:15:33;;;;;;;9.10;4.85;;;41.20;24.50;;;;;;5070654;28;20043;-81
2024/02/29 10:17:59;;;;;;;7.95;4.18;;;40.80;23.50;;;;;;5068808;28;20028;-80
2024/02/29 10:20:26;;;;;;;6.68;4.15;;;41.40;23.90;;;;;;5069909;28;20515;-79
2024/02/29 10:22:52;;;;;;;4.38;3.15;;;;;;;;;;5071085;28;20023;-80
2024/02/29 10:25:18;;;;;;;;;;;41.80;23.10;;;;;;5071685;28;20483;-80
2024/02/29 10:27:44;;;;;;;4.97;3.38;;;41.90;23.30;;;;;;5070236;28;19912;-81
2024/02/29 10:30:10;;;;;;;5.93;3.40;;;;;;;;;;5078288;28;20437;-81
2024/02/29 10:32:36;;;;;;;;;;;42.40;23.20;;;;;;5081518;28;20035;-81
2024/02/29 10:35:35;;;;;;;4.28;2.47;;;42.40;22.60;;;;;;5080118;28;19922;-80
2024/02/29 10:38:04;;;;;;;6.35;3.15;;;;;;;;;;5036037;28;20752;-80
2024/02/29 10:40:31;;;;;;;4.20;2.38;;;42.90;23.20;;;;;;5032941;28;20102;-81
2024/02/29 10:42:58;;;;;;;6.30;2.65;;;42.10;22.30;;;;;;5032448;28;20033;-82
2024/02/29 10:45:25;;;;;;;3.75;2.55;;;42.40;22.60;;;;;;5025506;28;20029;-82
2024/02/29 10:48:22;;;;;;;4.68;2.75;;;42.50;22.60;;;;;;5029987;28;20128;-83
2024/02/29 10:50:48;;;;;;;4.80;2.58;;;;;;;;;;5020646;28;20065;-83
2024/02/29 10:53:22;;;;;;;;;;;42.60;21.90;;;;;;5029565;28;20481;-84
2024/02/29 10:55:51;;;;;;;1.85;1.08;;;41.80;22.10;;;;;;5031292;28;19925;-81
2024/02/29 10:58:26;;;;;;;3.20;1.48;;;41.90;27.50;;;;;;5036262;28;20095;-82
2024/02/29 11:00:52;;;;;;;3.60;1.92;;;41.70;21.50;;;;;;5025602;28;20419;-81
2024/02/29 11:03:19;;;;;;;3.65;2.28;;;;;;;;;;5026121;28;20036;-81
2024/02/29 11:05:45;;;;;;;;;;;41.20;21.40;;;;;;5027083;28;20032;-81
2024/02/29 11:08:12;;;;;;;3.58;1.73;;;;;;;;;;5036038;28;19950;-82
2024/02/29 11:10:38;;;;;;;1.42;0.82;;;;;;;;;;5023571;28;20029;-82
2024/02/29 11:13:04;;;;;;;2.08;1.17;;;40.90;21.00;;;;;;5043899;28;20033;-81
2024/02/29 11:15:30;;;;;;;;;;;40.90;21.40;;;;;;5068316;28;20044;-81
2024/02/29 11:17:57;;;;;;;;;;;40.50;20.70;;;;;;5071312;28;19919;-81
2024/02/29 11:20:24;;;;;;;0.93;0.20;;;;;;;;;;5070256;28;19904;-82
2024/02/29 11:22:50;;;;;;;1.73;0.55;;;;;;;;;;5079464;28;20078;-81
2024/02/29 11:25:22;;;;;;;2.30;0.80;;;39.40;20.40;;;;;;5071525;28;20066;-81
2024/02/29 11:27:51;;;;;;;20.17;9.32;;;39.00;20.30;;;;;;5068170;28;20031;-82
2024/02/29 11:30:21;;;;;;;2.80;1.85;;;38.80;20.20;;;;;;5070139;28;20476;-81
2024/02/29 11:32:47;;;;;;;2.78;1.10;;;;;;;;;;5072131;28;20059;-82
2024/02/29 11:35:14;;;;;;;1.92;0.90;;;;;;;;;;5069731;28;20500;-82
2024/02/29 11:37:45;;;;;;;1.85;0.90;;;37.00;25.70;;;;;;5069201;28;20025;-80
2024/02/29 11:40:18;;;;;;;3.75;2.28;;;36.80;31.70;;;;;;5063857;28;20033;-80
2024/02/29 11:42:44;;;;;;;2.20;1.30;;;;;;;;;;5061532;28;20107;-80
2024/02/29 11:45:19;;;;;;;2.00;0.97;;;35.80;20.00;;;;;;5067873;28;20124;-81
2024/02/29 11:47:45;;;;;;;1.13;0.40;;;;;;;;;;5070637;28;20079;-81
2024/02/29 11:50:12;;;;;;;1.55;1.08;;;33.50;32.80;;;;;;5076252;28;20512;-80
2024/02/29 11:52:39;;;;;;;1.88;0.95;;;;;;;;;;5072790;28;20032;-82
2024/02/29 11:55:05;;;;;;;2.08;0.65;;;;;;;;;;5071160;28;20041;-79
2024/02/29 11:57:31;;;;;;;1.70;1.00;;;;;;;;;;5071907;28;20070;-84
2024/02/29 11:59:57;;;;;;;1.60;0.90;;;;;;;;;;5063781;28;20570;-79
2024/02/29 12:02:23;;;;;;;4.53;1.07;;;;;;;;;;5071774;28;20032;-79
2024/02/29 12:04:49;;;;;;;1.40;0.95;;;;;;;;;;5077026;28;20749;-80
2024/02/29 12:07:16;;;;;;;1.92;0.73;;;25.20;22.30;;;;;;5070471;28;20402;-79
2024/02/29 12:09:42;;;;;;;1.77;0.90;;;;;;;;;;5076279;28;20036;-80
2024/02/29 12:12:10;;;;;;;3.15;0.80;;;24.70;25.50;;;;;;5073422;28;20067;-80
2024/02/29 12:14:38;;;;;;;0.82;0.68;;;;;;;;;;5074431;28;20122;-80
2024/02/29 12:17:04;;;;;;;1.98;0.80;;;;;;;;;;5076628;28;20369;-81
2024/02/29 12:19:30;;;;;;;1.83;1.10;;;;;;;;;;5071888;28;20497;-81
2024/02/29 12:21:56;;;;;;;1.27;0.93;;;;;;;;;;5077247;28;20024;-81
2024/02/29 12:24:22;;;;;;;1.35;1.00;;;;;;;;;;5084364;28;20091;-80
2024/02/29 12:26:49;;;;;;;2.13;1.10;;;;;;;;;;5080384;28;20503;-81
2024/02/29 12:29:15;;;;;;;2.45;1.30;;;23.10;26.30;;;;;;5076475;28;20043;-81
2024/02/29 12:31:41;;;;;;;3.47;1.40;;;21.50;26.30;;;;;;5079164;28;20039;-81
2024/02/29 12:34:07;;;;;;;1.55;1.40;;;21.30;26.40;;;;;;5071095;28;20028;-81
2024/02/29 12:36:33;;;;;;;3.50;1.60;;;;;;;;;;5067263;28;20043;-80
2024/02/29 12:39:02;;;;;;;3.40;1.85;;;20.80;27.30;;;;;;5071295;28;20027;-80
2024/02/29 12:41:28;;;;;;;3.38;1.15;;;;;;;;;;5071020;28;20544;-81
2024/02/29 12:43:56;;;;;;;2.22;1.25;;;;;;;;;;5070499;28;20039;-82
2024/02/29 12:46:23;;;;;;;5.82;2.08;;;;;;;;;;5073801;28;20557;-81
2024/02/29 12:48:49;;;;;;;2.92;1.83;;;;;;;;;;5078623;28;20047;-82
2024/02/29 12:51:15;;;;;;;4.65;1.38;;;;;;;;;;5078525;28;20032;-81
2024/02/29 12:53:41;;;;;;;3.03;1.42;;;;;;;;;;5071569;28;20024;-82
2024/02/29 12:56:07;;;;;;;3.92;1.73;;;;;;;;;;5084045;28;20091;-79
2024/02/29 12:58:33;;;;;;;2.20;1.38;;;;;;;;;;5073292;28;20024;-81
2024/02/29 13:00:59;;;;;;;3.05;1.42;;;;;;;;;;5075048;28;20024;-78
2024/02/29 13:03:26;;;;;;;3.45;2.08;;;;;;;;;;5067144;28;20035;-78
2024/02/29 13:05:52;;;;;;;2.97;1.65;;;;;;;;;;5068081;28;20055;-78
2024/02/29 13:08:18;;;;;;;2.92;1.27;;;;;;;;;;5068192;28;20575;-78
2024/02/29 13:10:44;;;;;;;5.40;2.03;;;;;;;;;;5068203;28;20509;-77
2024/02/29 13:13:10;;;;;;;4.15;2.30;;;;;;;;;;5068628;28;20107;-78
2024/02/29 13:15:36;;;;;;;3.08;2.22;;;;;;;;;;5079453;28;20618;-78
2024/02/29 13:18:01;;;;;;;4.05;1.67;;;19.20;48.50;;;;;;5074509;28;20029;-77
2024/02/29 13:20:27;;;;;;;4.03;1.60;;;;;;;;;;5067410;28;20489;-76
2024/02/29 13:22:53;;;;;;;2.20;1.50;;;;;;;;;;5071115;28;20009;-74
2024/02/29 13:25:19;;;;;;;3.85;2.08;;;;;;;;;;5072316;28;20031;-74
2024/02/29 13:27:46;;;;;;;2.50;1.58;;;;;;;;;;5069164;28;20389;-76
2024/02/29 13:30:12;;;;;;;2.08;1.50;;;;;;;;;;5075754;28;20028;-76
2024/02/29 13:32:38;;;;;;;2.83;1.50;;;;;;;;;;5076614;28;20024;-75
2024/02/29 13:35:03;;;;;;;1.63;1.52;;;19.00;49.60;;;;;;5071471;28;20036;-75
2024/02/29 13:37:29;;;;;;;5.20;1.48;;;18.90;38.90;;;;;;5084830;28;20740;-76
2024/02/29 13:39:55;;;;;;;2.90;1.50;;;;;;;;;;5074976;28;20032;-75
2024/02/29 13:42:21;;;;;;;3.10;2.28;;;;;;;;;;5071171;28;20021;-75
2024/02/29 13:44:47;;;;;;;4.93;1.95;;;;;;;;;;5072287;28;20035;-76
2024/02/29 13:47:14;;;;;;;4.50;1.92;;;;;;;;;;5070665;28;20393;-75
2024/02/29 13:49:40;;;;;;;4.80;1.90;;;;;;;;;;5075918;28;20051;-76
2024/02/29 13:52:06;;;;;;;3.90;1.63;;;;;;;;;;5061653;28;20020;-76
2024/02/29 13:54:32;;;;;;;2.60;1.50;;;;;;;;;;5071251;28;20484;-75
2024/02/29 13:56:59;;;;;;;3.13;2.15;;;;;;;;;;5077757;28;20093;-75
2024/02/29 13:59:25;;;;;;;5.22;2.25;;;18.40;38.80;;;;;;5071232;28;20059;-76
2024/02/29 14:01:51;;;;;;;5.25;2.55;;;;;;;;;;5061669;28;20075;-76
2024/02/29 14:04:17;;;;;;;2.80;1.45;;;18.10;32.90;;;;;;5070853;28;20028;-75